This is the latest recevied weather packets stored in our database for station/object KD8UTJ. If no packets are shown the sender has not sent any weather packets the latest 10 day(s).
| Time | Temp. | Humidity | Pressure | Rain* | Wind** | Luminosity | Snow |
|---|---|---|---|---|---|---|---|
| 1777670448 | 27.78° C | 74% | 1011.3 hPa | 0 mm | - | 172 W/m² | - |
| 1777670145 | 27.78° C | 74% | 1011.5 hPa | 0 mm | - | 196 W/m² | - |
| 1777669844 | 27.78° C | 73% | 1011.4 hPa | 0 mm | - | 439 W/m² | - |
| 1777669539 | 27.78° C | 74% | 1011.5 hPa | 0 mm | - | 216 W/m² | - |
| 1777669236 | 27.78° C | 74% | 1011.3 hPa | 0 mm | - | 330 W/m² | - |
| 1777668933 | 27.78° C | 73% | 1011.4 hPa | 0 mm | - | 378 W/m² | - |
| 1777668631 | 27.78° C | 74% | 1011.5 hPa | 0 mm | - | 389 W/m² | - |
| 1777667720 | 27.78° C | 77% | 1011.3 hPa | 0 mm | - | 548 W/m² | - |
| 1777667114 | 27.78° C | 77% | 1011.7 hPa | 0 mm | - | 608 W/m² | - |
| 1777666810 | 27.78° C | 77% | 1011.8 hPa | 0 mm | - | 350 W/m² | - |
| 1777665599 | 28.33° C | 76% | 1012.2 hPa | 0 mm | - | 601 W/m² | - |
| 1777663779 | 28.33° C | 73% | 1012.6 hPa | 0 mm | - | 281 W/m² | - |
| 1777663476 | 28.89° C | 72% | 1012.7 hPa | 0 mm | - | 186 W/m² | - |
| 1777663173 | 29.44° C | 70% | 1012.9 hPa | 0 mm | - | 317 W/m² | - |
| 1777662870 | 28.89° C | 71% | 1012.8 hPa | 0 mm | - | 787 W/m² | - |
| 1777660747 | 31.67° C | 61% | 1012.9 hPa | 0 mm | - | 821 W/m² | - |
| 1777660141 | 30° C | 58% | 1012.9 hPa | 0 mm | - | 858 W/m² | - |
| 1777659838 | 29.44° C | 64% | 1013.1 hPa | 0 mm | - | 841 W/m² | - |
| 1777659231 | 29.44° C | 66% | 1013.4 hPa | 0 mm | - | 865 W/m² | - |
| 1777658929 | 30° C | 67% | 1013.1 hPa | 0 mm | - | 147 W/m² | - |
| 1777658624 | 30° C | 63% | 1013.2 hPa | 0 mm | - | 305 W/m² | - |
| 1777657111 | 31.11° C | 54% | 1013.4 hPa | 0 mm | - | 899 W/m² | - |
| 1777656808 | 31.11° C | 57% | 1013.6 hPa | 0 mm | - | 252 W/m² | - |
| 1777656199 | 30° C | 56% | 1013.4 hPa | 0 mm | - | 306 W/m² | - |
| 1777655591 | 30.56° C | 56% | 1013.6 hPa | 0 mm | - | 888 W/m² | - |
* Rain latest hour (hover to see other rain measurements)
** Current wind speed in m/s (hover to see current wind gust speed)